• Join FlightAware (Why Join?)
  • Login
  • US Flag 
Trick or treat! (Boo!!) 
07:46PM EDT


 

Airport Tracker/Info


-or-


 

Live Flight TrackerFlight Track Log ✈ DAL4888 ✈ 27-Apr-2013 ✈ KATL - KTRI

Flight Track Log - Related Links

Times and Time Zones

All times are in EDT time to prevent confusion due to time zone crossing. See the DAL4888 flight status page for this flight to view local times or setup timezone preferences in your user account.

Time Position Orientation Groundspeed Altitude Reporting Facility
EDT Latitude Longitude Course Direction KTS MPH feet Rate Location/Type
08:46PM 33.6500 -84.3833 320° Northwest 163 188 2,400  Level Atlanta TRACON
08:48PM 33.6667 -84.3000 76° East 267 307 4,300 2,160 Climbing Atlanta TRACON
08:48PM 33.7333 -84.2833 12° North 300 345 6,600 2,280 Climbing Atlanta TRACON
08:50PM 33.8858 -84.2842 360° North 295 339 10,500 1,860 Climbing Atlanta Center
08:51PM 33.9819 -84.2844 360° North 319 367 12,100 1,560 Climbing Atlanta Center
08:52PM 33.8684 -84.2017 320° Northwest  Level FlightAware Approximate
08:52PM 34.0800 -84.2847 360° North 342 394 13,700  Level Atlanta Center
08:53PM 34.1822 -84.2850 360° North 350 403 15,300 1,500 Climbing Atlanta Center
08:54PM 34.2803 -84.2825 North 356 410 16,800 1,260 Climbing Atlanta Center
08:55PM 34.3806 -84.2553 13° North 356 410 17,900 960 Climbing Atlanta Center
08:56PM 34.4725 -84.1800 34° Northeast 366 421 18,800 900 Climbing Atlanta Center
08:57PM 34.5664 -84.0992 35° Northeast 397 457 19,800 960 Climbing Atlanta Center
08:58PM 34.6625 -84.0211 34° Northeast 410 472 20,800 960 Climbing Atlanta Center
08:59PM 34.7564 -83.9428 34° Northeast 410 472 21,800 960 Climbing Atlanta Center
09:00PM 34.8647 -83.8489 35° Northeast 417 480 22,800 600 Climbing Atlanta Center
09:01PM 34.9503 -83.7753 35° Northeast 422 486 23,000 60 Climbing Atlanta Center
09:02PM 35.0542 -83.6861 35° Northeast 427 491 23,000  Level Atlanta Center
09:03PM 35.1603 -83.5967 35° Northeast 450 518 23,000  Level Atlanta Center
09:04PM 35.2686 -83.5019 36° Northeast 463 533 23,000  Level Atlanta Center
09:05PM 35.3808 -83.4069 35° Northeast 479 551 23,000 -600 Level Atlanta Center
09:06PM 35.4908 -83.3144 34° Northeast 479 551 21,900 -1,620 Descending Atlanta Center
09:07PM 35.5944 -83.2189 37° Northeast 473 544 19,800 -2,100 Descending Atlanta Center
09:08PM 35.6983 -83.1308 35° Northeast 458 527 17,800 -1,920 Descending Atlanta Center
09:09PM 35.7956 -83.0403 37° Northeast 445 512 16,000 -1,920 Descending Atlanta Center
09:10PM 35.8739 -82.9342 48° Northeast 426 490 14,000 -2,100 Descending Atlanta Center
09:11PM 35.9458 -82.8333 49° Northeast 398 458 11,800 -1,500 Descending Atlanta Center
09:12PM 36.0117 -82.7425 48° Northeast 362 417 11,000 -900 Descending Atlanta Center
09:13PM 36.0692 -82.6567 50° Northeast 329 379 10,100 -1,260 Descending Atlanta Center
09:14PM 36.1311 -82.6017 36° Northeast 292 336 8,500 -1,500 Descending Atlanta Center
09:15PM 36.2039 -82.5822 12° North 263 303 7,100 -1,260 Descending Atlanta Center
09:16PM 36.2725 -82.5631 13° North 253 291 6,000 -1,260 Descending Atlanta Center
09:17PM 36.3411 -82.5489 North 248 285 4,600 -1,200 Descending Atlanta Center
09:18PM 36.3886 -82.5094 34° Northeast 214 246 3,700 -960 Descending Atlanta Center
09:19PM 36.4236 -82.4675 44° Northeast 179 206 2,700 -900 Descending Atlanta Center
09:20PM 36.4544 -82.4306 44° Northeast 160 184 1,900 -840 Descending Atlanta Center
09:22PM 36.4667 -82.4000 47° Northeast  Level FlightAware Approximate